Hastings, West Virginia
Current Conditions -  °F | °C
As of 9:53 AM on Monday 22 Dec 2014 (Local Time) from KCKB Reporting Station
Overcast Overcast  
Wind Chill: 33°   Ceiling: 4200
Heat Index: 33°   Visibility: 7mi
Dew Point: 29°   Wind: 0mph
Humidity: 85%   Direction: NA
Pressure: 30.12"   Gusts: NA
Location:  39.5697°N, 80.6462°W
Report Text: KCKB 221453Z 00000KT 7SM OVC042 01/M02 A3012 RMK AO2 SLP205 T00061017 53002
Loading
Personal Weather Stations






























Interactive Weather Map New forecast layout! Learn more

10-Day Weather Forecast

Advertisements
Track Severe Weather on mobile